CheckWX is a tool to help pilots better visualize weather data.  It is not intended as a substitute for an official pre-flight weather briefing.

12:20:46 UTC

KTBN METAR
Waynesville-St Robert Regional Forney Field Airport
Fort Leonard Wood, Missouri, USA
Current

25 mins ago

KTBN 181156Z AUTO 30003KT 10SM CLR M07/M10 A3024 RMK AO2 SLP259 T10681102 11038 21068 52022 $
Observed
Feb-18 @ 11:56 UTC
Wind
  • 300° at 3 KTS
Visibility
10 SM
Flight Rules
VFR
Cloud Levels
  • Clear skies
Temperature
-7°C / 19°F
Dewpoint
-10°C / 14°F
Humidity
79%
Altimeter
30.24" Hg
Pressure
1025.9 hPa
Previous

50 mins ago

KTBN 181131Z AUTO 30003KT 10SM SCT021 M06/M10 A3023 RMK AO2 SLP255 $
Observed
Feb-18 @ 11:31 UTC
Wind
  • 300° at 3 KTS
Visibility
10 SM
Flight Rules
VFR
Cloud Levels
  • Scattered at 2,100' AGL
Temperature
-6°C / 21°F
Dewpoint
-10°C / 14°F
Humidity
74%
Altimeter
30.23" Hg
Pressure
1025.5 hPa
Previous

1 hour ago

KTBN 181056Z AUTO 30005KT 10SM BKN021 M06/M10 A3022 RMK AO2 SLP251 T10561099 $
Observed
Feb-18 @ 10:56 UTC
Wind
  • 300° at 5 KTS
Visibility
10 SM
Flight Rules
MVFR
Cloud Levels
  • Broken at 2,100' AGL
Temperature
-6°C / 21°F
Dewpoint
-10°C / 14°F
Humidity
74%
Altimeter
30.22" Hg
Pressure
1025.1 hPa